Time;durP1;ratioP1;P1;durP2;ratioP2;P2;SDS_P1;SDS_P2;PMS_P1;PMS_P2;Temp;Humidity;BMP_temperature;BMP_pressure;BME280_temperature;BME280_humidity;BME280_pressure;Samples;Min_cycle;Max_cycle;Signal;HPM_P1;HPM_P2
2022/10/16 00:01:35;;;;;;;14.82;5.03;;;17.60;99.90;;;;;;5071516;28;20336;-89
2022/10/16 00:04:01;;;;;;;13.77;4.35;;;17.60;99.90;;;;;;5076014;28;20025;-88
2022/10/16 00:06:28;;;;;;;10.82;4.30;;;17.50;99.90;;;;;;5075926;28;20032;-88
2022/10/16 00:08:54;;;;;;;12.32;4.55;;;17.50;99.90;;;;;;5061728;28;20090;-89
2022/10/16 00:11:29;;;;;;;13.50;4.30;;;17.50;99.90;;;;;;5068587;28;20055;-88
2022/10/16 00:13:57;;;;;;;18.42;4.47;;;17.50;99.90;;;;;;5073166;28;20059;-89
2022/10/16 00:16:23;;;;;;;11.98;4.18;;;17.50;99.90;;;;;;5068155;28;20019;-89
2022/10/16 00:18:49;;;;;;;14.35;3.75;;;17.50;99.90;;;;;;5068936;28;20036;-88
2022/10/16 00:21:18;;;;;;;10.18;3.42;;;17.50;99.90;;;;;;5080360;28;20328;-89
2022/10/16 00:23:44;;;;;;;13.32;3.00;;;17.50;99.90;;;;;;5067404;28;20488;-88
2022/10/16 00:26:13;;;;;;;11.35;3.47;;;17.50;99.90;;;;;;5066410;28;20020;-88
2022/10/16 00:28:39;;;;;;;10.32;4.43;;;17.40;99.90;;;;;;5078294;28;20009;-88
2022/10/16 00:31:08;;;;;;;48.95;23.88;;;17.40;99.90;;;;;;5066204;28;20059;-88
2022/10/16 00:33:34;;;;;;;64.38;33.03;;;17.40;99.90;;;;;;5065451;28;20037;-88
2022/10/16 00:36:02;;;;;;;29.17;14.82;;;17.40;99.90;;;;;;5071570;28;20025;-87
2022/10/16 00:38:28;;;;;;;18.80;10.15;;;17.40;99.90;;;;;;5073913;28;20016;-88
2022/10/16 00:40:53;;;;;;;14.75;5.50;;;17.40;99.90;;;;;;5075096;28;20321;-88
2022/10/16 00:43:40;;;;;;;6.75;2.78;;;17.30;99.90;;;;;;5072242;28;20087;-87
2022/10/16 00:46:15;;;;;;;8.90;2.08;;;17.30;99.90;;;;;;5068357;28;20021;-87
2022/10/16 00:48:45;;;;;;;3.67;1.90;;;17.30;99.90;;;;;;5071311;28;20032;-87
2022/10/16 00:51:10;;;;;;;5.00;1.20;;;17.30;99.90;;;;;;5066968;28;20012;-87
2022/10/16 00:53:36;;;;;;;8.73;1.70;;;17.30;99.90;;;;;;5067983;28;20321;-87
2022/10/16 00:56:03;;;;;;;5.05;1.00;;;17.20;99.90;;;;;;5065755;28;20040;-87
2022/10/16 00:58:28;;;;;;;4.63;1.23;;;17.20;99.90;;;;;;5064351;28;20043;-87
2022/10/16 01:00:54;;;;;;;3.30;1.00;;;17.10;99.90;;;;;;5069882;28;20103;-88
2022/10/16 01:03:30;;;;;;;3.70;1.10;;;17.20;99.90;;;;;;5070562;28;20024;-88
2022/10/16 01:06:21;;;;;;;2.30;1.20;;;17.10;99.90;;;;;;5084366;28;20023;-87
2022/10/16 01:08:55;;;;;;;3.53;1.30;;;17.20;99.90;;;;;;5068087;28;20077;-87
2022/10/16 01:11:40;;;;;;;3.63;1.17;;;17.10;99.90;;;;;;5069449;28;20013;-87
2022/10/16 01:14:19;;;;;;;3.63;1.10;;;17.10;99.90;;;;;;5070086;28;20138;-88
2022/10/16 01:16:54;;;;;;;5.25;1.55;;;17.20;99.90;;;;;;5077263;28;20074;-88
2022/10/16 01:19:19;;;;;;;3.00;1.33;;;17.10;99.90;;;;;;5072865;28;20047;-88
2022/10/16 01:21:47;;;;;;;2.63;1.30;;;17.10;99.90;;;;;;5078833;28;20036;-87
2022/10/16 01:24:40;;;;;;;3.92;1.15;;;17.10;99.90;;;;;;5072527;28;20032;-87
2022/10/16 01:27:26;;;;;;;2.97;1.20;;;17.10;99.90;;;;;;5072465;28;20056;-87
2022/10/16 01:30:13;;;;;;;3.38;1.65;;;17.00;99.90;;;;;;5064268;28;20051;-87
2022/10/16 01:32:57;;;;;;;3.97;1.73;;;17.00;99.90;;;;;;5063639;28;20320;-87
2022/10/16 01:35:42;;;;;;;4.15;1.60;;;17.00;99.90;;;;;;5063784;28;20028;-87
2022/10/16 01:38:12;;;;;;;;;;;17.00;99.90;;;;;;5070848;28;20025;-89
2022/10/16 01:40:41;;;;;;;4.15;1.50;;;17.00;99.90;;;;;;5073958;28;20018;-87
2022/10/16 01:43:12;;;;;;;3.78;1.75;;;17.00;99.90;;;;;;5068896;28;20313;-87
2022/10/16 01:45:39;;;;;;;5.78;1.77;;;17.10;99.90;;;;;;5074855;28;20204;-87
2022/10/16 01:48:07;;;;;;;4.00;1.70;;;17.00;99.90;;;;;;5066631;28;20024;-87
2022/10/16 01:50:37;;;;;;;2.65;1.70;;;17.00;99.90;;;;;;5065707;28;20085;-88
2022/10/16 01:53:04;;;;;;;4.78;1.98;;;17.00;99.90;;;;;;5065470;28;20035;-87
2022/10/16 01:55:35;;;;;;;5.18;2.00;;;16.90;99.90;;;;;;5073663;28;20024;-87
2022/10/16 01:58:04;;;;;;;3.70;1.90;;;16.90;99.90;;;;;;5073689;28;20181;-87
2022/10/16 02:00:31;;;;;;;4.10;2.00;;;16.90;99.90;;;;;;5065883;28;20032;-88
2022/10/16 02:02:59;;;;;;;3.60;2.13;;;16.90;99.90;;;;;;5080206;28;20094;-88
2022/10/16 02:05:33;;;;;;;6.40;2.40;;;16.90;99.90;;;;;;5077872;28;20083;-88
2022/10/16 02:07:59;;;;;;;3.08;2.03;;;16.90;99.90;;;;;;5066364;28;20017;-88
2022/10/16 02:10:30;;;;;;;3.95;2.10;;;17.00;99.90;;;;;;5069069;28;20039;-88
2022/10/16 02:13:22;;;;;;;4.72;2.30;;;16.90;99.90;;;;;;5071863;28;20020;-88
2022/10/16 02:15:48;;;;;;;6.45;2.53;;;16.90;99.90;;;;;;5068432;28;20025;-88
2022/10/16 02:18:14;;;;;;;8.25;2.50;;;16.90;99.90;;;;;;5073216;28;20017;-87
2022/10/16 02:20:52;;;;;;;3.08;2.22;;;16.80;99.90;;;;;;5067492;28;20033;-88
2022/10/16 02:23:26;;;;;;;8.77;2.60;;;16.90;99.90;;;;;;5069698;28;20323;-88
2022/10/16 02:25:56;;;;;;;4.10;2.45;;;16.90;99.90;;;;;;5065363;28;20044;-88
2022/10/16 02:28:31;;;;;;;3.97;2.58;;;16.80;99.90;;;;;;5074473;28;20028;-88
2022/10/16 02:31:01;;;;;;;3.47;2.65;;;16.80;99.90;;;;;;5070784;28;20295;-88
2022/10/16 02:33:29;;;;;;;4.80;3.13;;;16.90;99.90;;;;;;5063307;28;20446;-87
2022/10/16 02:35:56;;;;;;;4.88;3.10;;;16.90;99.90;;;;;;5062094;28;20017;-88
2022/10/16 02:38:23;;;;;;;5.88;2.80;;;16.90;99.90;;;;;;5073799;28;20037;-89
2022/10/16 02:40:49;;;;;;;4.03;3.00;;;16.90;99.90;;;;;;5072214;28;20351;-87
2022/10/16 02:43:14;;;;;;;6.07;3.38;;;16.90;99.90;;;;;;5067059;28;20029;-88
2022/10/16 02:45:40;;;;;;;7.32;3.20;;;16.90;99.90;;;;;;5070664;28;20016;-88
2022/10/16 02:48:06;;;;;;;4.50;2.80;;;16.90;99.90;;;;;;5066459;28;20035;-88
2022/10/16 02:50:32;;;;;;;5.07;2.88;;;16.90;99.90;;;;;;5067628;28;20201;-88
2022/10/16 02:52:57;;;;;;;3.65;2.80;;;16.90;99.90;;;;;;5064941;28;20028;-87
2022/10/16 02:55:23;;;;;;;5.97;3.58;;;16.90;99.90;;;;;;5066000;28;20059;-88
2022/10/16 02:57:49;;;;;;;6.50;3.65;;;16.80;99.90;;;;;;5063526;28;20013;-87
2022/10/16 03:00:16;;;;;;;8.02;4.53;;;16.80;99.90;;;;;;5062652;28;20104;-88
2022/10/16 03:02:42;;;;;;;10.13;4.70;;;16.80;99.90;;;;;;5066914;28;20012;-87
2022/10/16 03:05:08;;;;;;;7.95;4.57;;;16.80;99.90;;;;;;5080810;28;20087;-87
2022/10/16 03:07:34;;;;;;;7.28;4.68;;;16.80;99.90;;;;;;5069553;28;20142;-88
2022/10/16 03:10:00;;;;;;;7.03;4.78;;;16.80;99.90;;;;;;5063132;28;20154;-87
2022/10/16 03:12:26;;;;;;;5.97;4.40;;;16.80;99.90;;;;;;5060676;28;20021;-87
2022/10/16 03:14:52;;;;;;;9.45;4.50;;;16.80;99.90;;;;;;5068193;28;20043;-88
2022/10/16 03:17:18;;;;;;;9.43;5.72;;;16.90;99.90;;;;;;5071625;28;20281;-88
2022/10/16 03:19:44;;;;;;;6.32;4.75;;;16.90;99.90;;;;;;5071540;28;20299;-88
2022/10/16 03:22:10;;;;;;;8.27;4.78;;;16.90;99.90;;;;;;5067642;28;20055;-87
2022/10/16 03:24:35;;;;;;;7.82;4.28;;;16.90;99.90;;;;;;5065956;28;20029;-88
2022/10/16 03:27:04;;;;;;;7.68;4.65;;;16.80;99.90;;;;;;5067076;28;20051;-88
2022/10/16 03:29:29;;;;;;;7.82;4.72;;;16.80;99.90;;;;;;5069232;28;20032;-88
2022/10/16 03:31:56;;;;;;;7.47;5.00;;;16.80;99.90;;;;;;5072695;28;20193;-88
2022/10/16 03:34:22;;;;;;;10.13;4.90;;;16.80;99.90;;;;;;5064730;28;20064;-87
2022/10/16 03:36:48;;;;;;;8.55;5.38;;;16.90;99.90;;;;;;5058753;28;20028;-87
2022/10/16 03:39:13;;;;;;;7.35;5.60;;;16.90;99.90;;;;;;5059667;28;20543;-87
2022/10/16 03:41:39;;;;;;;7.18;5.22;;;16.90;99.90;;;;;;5059883;28;20124;-87
2022/10/16 03:44:05;;;;;;;8.48;5.13;;;16.90;99.90;;;;;;5069869;28;20058;-88
2022/10/16 03:46:31;;;;;;;11.05;6.53;;;16.90;99.90;;;;;;5065816;28;20091;-87
2022/10/16 03:48:57;;;;;;;14.30;8.35;;;16.80;99.90;;;;;;5064610;28;20028;-87
2022/10/16 03:51:22;;;;;;;31.67;15.25;;;16.80;99.90;;;;;;5061893;28;20028;-87
2022/10/16 03:53:48;;;;;;;35.30;18.48;;;16.80;99.90;;;;;;5065713;28;20344;-87
2022/10/16 03:56:13;;;;;;;49.85;23.85;;;16.80;99.90;;;;;;5059280;28;20036;-87
2022/10/16 03:58:39;;;;;;;43.20;23.35;;;16.80;99.90;;;;;;5063316;28;20017;-87
2022/10/16 04:01:05;;;;;;;47.38;24.10;;;16.80;99.90;;;;;;5060792;28;20041;-87
2022/10/16 04:03:30;;;;;;;40.95;22.80;;;16.80;99.90;;;;;;5067797;28;20020;-86
2022/10/16 04:05:56;;;;;;;43.17;23.60;;;16.80;99.90;;;;;;5079677;28;20217;-86
2022/10/16 04:08:22;;;;;;;41.53;22.15;;;16.80;99.90;;;;;;5063135;28;20088;-87
2022/10/16 04:10:48;;;;;;;39.63;22.48;;;16.80;99.90;;;;;;5067536;28;20234;-86
2022/10/16 04:13:15;;;;;;;40.42;21.88;;;16.80;99.90;;;;;;5067140;28;20138;-87
2022/10/16 04:15:40;;;;;;;35.50;20.00;;;16.80;99.90;;;;;;5075215;28;20321;-86
2022/10/16 04:18:06;;;;;;;35.47;20.52;;;16.80;99.90;;;;;;5069434;28;20099;-87
2022/10/16 04:20:33;;;;;;;34.50;18.80;;;16.80;99.90;;;;;;5067365;28;20074;-88
2022/10/16 04:22:58;;;;;;;32.05;18.80;;;16.80;99.90;;;;;;5072229;28;20093;-86
2022/10/16 04:25:24;;;;;;;30.23;17.15;;;16.80;99.90;;;;;;5067105;28;20127;-87
2022/10/16 04:27:49;;;;;;;31.42;17.05;;;16.80;99.90;;;;;;5064214;28;20063;-86
2022/10/16 04:30:15;;;;;;;29.98;16.88;;;16.80;99.90;;;;;;5065222;28;20012;-87
2022/10/16 04:32:41;;;;;;;29.67;16.92;;;16.80;99.90;;;;;;5062643;28;20081;-88
2022/10/16 04:35:07;;;;;;;28.83;14.38;;;16.80;99.90;;;;;;5062779;28;20419;-88
2022/10/16 04:37:33;;;;;;;27.35;15.07;;;16.80;99.90;;;;;;5060888;28;20013;-87
2022/10/16 04:39:58;;;;;;;26.67;15.13;;;16.80;99.90;;;;;;5065548;28;20198;-87
2022/10/16 04:42:24;;;;;;;24.58;13.38;;;16.80;99.90;;;;;;5070525;28;20024;-87
2022/10/16 04:44:50;;;;;;;26.38;13.95;;;16.80;99.90;;;;;;5063918;28;20218;-87
2022/10/16 04:47:15;;;;;;;25.95;15.18;;;16.80;99.90;;;;;;5061047;28;20020;-87
2022/10/16 04:49:41;;;;;;;21.75;13.27;;;16.80;99.90;;;;;;5063832;28;20021;-87
2022/10/16 04:52:08;;;;;;;25.52;13.45;;;16.80;99.90;;;;;;5066998;28;20066;-87
2022/10/16 04:54:34;;;;;;;21.83;12.57;;;16.80;99.90;;;;;;5062711;28;20013;-87
2022/10/16 04:56:59;;;;;;;18.25;11.18;;;16.80;99.90;;;;;;5066551;28;20067;-87
2022/10/16 04:59:25;;;;;;;17.95;10.90;;;16.80;99.90;;;;;;5065111;28;20051;-87
2022/10/16 05:01:50;;;;;;;15.05;9.45;;;16.80;99.90;;;;;;5065268;28;20163;-88
2022/10/16 05:04:16;;;;;;;15.88;10.25;;;16.80;99.90;;;;;;5069470;28;20023;-87
2022/10/16 05:06:42;;;;;;;14.18;10.82;;;16.80;99.90;;;;;;5065270;28;20016;-87
2022/10/16 05:09:08;;;;;;;15.25;10.45;;;16.80;99.90;;;;;;5061604;28;20028;-87
2022/10/16 05:11:34;;;;;;;13.77;9.68;;;16.80;99.90;;;;;;5076969;28;20324;-87
2022/10/16 05:14:00;;;;;;;14.40;9.30;;;16.80;99.90;;;;;;5069145;28;20021;-87
2022/10/16 05:16:27;;;;;;;12.95;9.57;;;16.90;99.90;;;;;;5072916;28;20092;-87
2022/10/16 05:18:53;;;;;;;12.90;9.00;;;16.80;99.90;;;;;;5074334;28;20016;-88
2022/10/16 05:21:20;;;;;;;13.50;9.30;;;16.80;99.90;;;;;;5073336;28;20040;-88
2022/10/16 05:23:45;;;;;;;12.27;9.15;;;16.80;99.90;;;;;;5070802;28;20023;-88
2022/10/16 05:26:11;;;;;;;15.30;9.95;;;16.90;99.90;;;;;;5066314;28;20032;-87
2022/10/16 05:28:37;;;;;;;14.68;9.00;;;16.80;99.90;;;;;;5067344;28;20028;-88
2022/10/16 05:31:07;;;;;;;10.40;8.90;;;16.80;99.90;;;;;;5064765;28;20040;-87
2022/10/16 05:33:33;;;;;;;12.75;7.93;;;16.80;99.90;;;;;;5074456;28;20046;-87
2022/10/16 05:36:04;;;;;;;10.77;8.10;;;16.80;99.90;;;;;;5068269;28;20368;-88
2022/10/16 05:38:29;;;;;;;8.43;7.45;;;16.80;99.90;;;;;;5069420;28;20363;-88
2022/10/16 05:40:56;;;;;;;12.25;8.32;;;16.80;99.90;;;;;;5077695;28;20028;-87
2022/10/16 05:43:22;;;;;;;11.30;7.50;;;16.80;99.90;;;;;;5069993;28;20029;-87
2022/10/16 05:45:58;;;;;;;10.18;7.88;;;16.80;99.90;;;;;;5067873;28;20509;-88
2022/10/16 05:48:24;;;;;;;10.40;7.47;;;16.80;99.90;;;;;;5069010;28;20017;-87
2022/10/16 05:51:04;;;;;;;8.52;7.25;;;16.80;99.90;;;;;;5069751;28;20025;-87
2022/10/16 05:53:32;;;;;;;8.18;6.47;;;16.80;99.90;;;;;;5067068;28;20027;-87
2022/10/16 05:55:58;;;;;;;8.75;7.10;;;16.70;99.90;;;;;;5070424;28;20021;-87
2022/10/16 05:58:25;;;;;;;7.78;6.97;;;16.70;99.90;;;;;;5066170;28;20097;-87
2022/10/16 06:01:23;;;;;;;7.72;6.93;;;16.70;99.90;;;;;;5062518;28;20390;-87
2022/10/16 06:03:52;;;;;;;8.68;7.07;;;16.60;99.90;;;;;;5056993;28;20110;-87
2022/10/16 06:06:21;;;;;;;9.23;7.35;;;16.60;99.90;;;;;;5080456;28;20795;-88
2022/10/16 06:08:47;;;;;;;10.30;7.10;;;16.60;99.90;;;;;;5064431;28;20195;-86
2022/10/16 06:11:18;;;;;;;11.35;7.45;;;16.60;99.90;;;;;;5077439;28;20036;-86
2022/10/16 06:13:45;;;;;;;10.02;7.43;;;16.60;99.90;;;;;;5068701;28;20008;-87
2022/10/16 06:16:12;;;;;;;7.18;6.20;;;16.60;99.90;;;;;;5076815;28;20080;-86
2022/10/16 06:18:38;;;;;;;7.68;6.80;;;16.60;99.90;;;;;;5070403;28;20055;-86
2022/10/16 06:21:24;;;;;;;8.95;7.38;;;16.60;99.90;;;;;;5056716;28;20545;-86
2022/10/16 06:23:50;;;;;;;9.70;7.55;;;16.60;99.90;;;;;;5066363;28;20033;-87
2022/10/16 06:26:19;;;;;;;9.10;7.20;;;16.60;99.90;;;;;;5059379;28;20024;-86
2022/10/16 06:28:45;;;;;;;9.32;7.57;;;16.60;99.90;;;;;;5072601;28;20025;-86
2022/10/16 06:31:12;;;;;;;9.18;7.95;;;16.60;99.90;;;;;;5082473;28;20013;-86
2022/10/16 06:33:39;;;;;;;9.40;7.55;;;16.70;99.90;;;;;;5093292;28;20060;-86
2022/10/16 06:36:11;;;;;;;8.70;7.47;;;16.70;99.90;;;;;;5070410;28;20396;-86
2022/10/16 06:38:38;;;;;;;8.90;7.50;;;16.70;99.90;;;;;;5070318;28;20029;-87
2022/10/16 06:41:05;;;;;;;8.82;7.88;;;16.70;99.90;;;;;;5070016;28;20029;-86
2022/10/16 06:43:37;;;;;;;8.45;7.55;;;16.80;99.90;;;;;;5066414;28;20024;-86
2022/10/16 06:46:05;;;;;;;10.18;8.35;;;16.80;99.90;;;;;;5064524;28;20389;-87
2022/10/16 06:48:31;;;;;;;10.02;7.57;;;16.80;99.90;;;;;;5068387;28;20115;-87
2022/10/16 06:51:02;;;;;;;11.65;7.40;;;16.80;99.90;;;;;;5074019;28;20025;-86
2022/10/16 06:53:30;;;;;;;9.70;8.18;;;16.90;99.90;;;;;;5075174;28;20100;-86
2022/10/16 06:55:56;;;;;;;11.88;8.55;;;16.90;99.90;;;;;;5076942;28;20025;-87
2022/10/16 06:58:22;;;;;;;10.63;8.20;;;16.90;99.90;;;;;;5063023;28;20028;-86
2022/10/16 07:00:48;;;;;;;13.60;9.13;;;16.80;99.90;;;;;;5066929;28;20055;-86
2022/10/16 07:03:14;;;;;;;11.32;9.00;;;16.90;99.90;;;;;;5075271;28;20321;-87
2022/10/16 07:05:41;;;;;;;10.75;8.68;;;16.90;99.90;;;;;;5078660;28;20292;-85
2022/10/16 07:08:08;;;;;;;10.10;7.45;;;16.90;99.90;;;;;;5074914;28;20028;-85
2022/10/16 07:10:34;;;;;;;9.68;8.20;;;16.90;99.90;;;;;;5058410;28;20618;-85
2022/10/16 07:12:59;;;;;;;10.45;7.78;;;16.90;99.90;;;;;;5051644;28;20600;-85
2022/10/16 07:15:26;;;;;;;10.15;8.50;;;16.90;99.90;;;;;;5055716;28;20111;-85
2022/10/16 07:17:52;;;;;;;11.73;9.45;;;16.90;99.90;;;;;;5058074;28;20033;-85
2022/10/16 07:20:18;;;;;;;9.82;8.00;;;17.00;99.90;;;;;;5059594;28;20201;-85
2022/10/16 07:22:43;;;;;;;8.45;7.43;;;17.00;99.90;;;;;;5055862;28;20796;-85
2022/10/16 07:25:09;;;;;;;8.70;7.30;;;17.10;99.90;;;;;;5059397;28;20078;-86
2022/10/16 07:27:35;;;;;;;10.52;7.60;;;17.10;99.90;;;;;;5054611;28;20477;-86
2022/10/16 07:30:00;;;;;;;8.57;7.72;;;17.20;99.90;;;;;;5055828;28;20016;-86
2022/10/16 07:32:26;;;;;;;8.32;6.85;;;17.20;99.90;;;;;;5052341;28;20371;-87
2022/10/16 07:34:52;;;;;;;9.00;7.45;;;17.30;99.90;;;;;;5059078;28;20074;-88
2022/10/16 07:37:18;;;;;;;8.15;7.28;;;17.30;99.90;;;;;;5051041;28;20081;-88
2022/10/16 07:39:44;;;;;;;8.45;7.00;;;17.40;99.90;;;;;;5051783;28;20104;-87
2022/10/16 07:42:09;;;;;;;8.23;6.63;;;17.40;99.90;;;;;;5061913;28;20109;-87
2022/10/16 07:44:35;;;;;;;9.63;6.35;;;17.40;99.90;;;;;;5055781;28;20604;-87
2022/10/16 07:47:00;;;;;;;9.13;6.57;;;17.40;99.90;;;;;;5058765;28;20468;-89
2022/10/16 07:49:26;;;;;;;9.10;7.72;;;17.50;99.90;;;;;;5059051;28;20047;-88
2022/10/16 07:51:52;;;;;;;7.50;6.80;;;17.50;99.90;;;;;;5059660;28;20429;-88
2022/10/16 07:54:17;;;;;;;8.00;6.32;;;17.60;99.90;;;;;;5057157;28;20024;-88
2022/10/16 07:56:43;;;;;;;12.90;6.50;;;17.70;99.90;;;;;;5072917;28;20024;-87
2022/10/16 07:59:09;;;;;;;9.77;7.03;;;17.80;99.90;;;;;;5077798;28;20059;-88
2022/10/16 08:01:34;;;;;;;10.65;6.90;;;17.80;99.90;;;;;;5075298;28;20039;-89
2022/10/16 08:04:00;;;;;;;7.93;6.20;;;17.80;99.90;;;;;;5076342;28;20078;-88
2022/10/16 08:06:26;;;;;;;8.73;6.45;;;17.90;99.90;;;;;;5068039;28;20016;-87
2022/10/16 08:08:51;;;;;;;7.25;6.32;;;17.90;99.90;;;;;;5069692;28;20047;-84
2022/10/16 08:11:17;;;;;;;8.40;5.85;;;18.00;99.90;;;;;;5063068;28;20241;-84
2022/10/16 08:13:43;;;;;;;6.82;5.72;;;17.90;99.90;;;;;;5059724;28;20040;-83
2022/10/16 08:16:09;;;;;;;6.82;5.45;;;17.90;99.90;;;;;;5067570;28;20056;-83
2022/10/16 08:18:39;;;;;;;6.35;5.50;;;18.00;99.90;;;;;;5071168;28;20029;-83
2022/10/16 08:21:06;;;;;;;8.18;5.72;;;18.00;99.90;;;;;;5070178;28;20039;-76
2022/10/16 08:23:32;;;;;;;8.48;5.82;;;18.10;99.90;;;;;;5062418;28;20017;-76
2022/10/16 08:26:04;;;;;;;6.80;5.28;;;18.20;99.90;;;;;;5061580;28;20284;-78
2022/10/16 08:28:29;;;;;;;7.35;5.50;;;18.10;99.90;;;;;;5062915;28;20044;-77
2022/10/16 08:30:56;;;;;;;7.13;5.22;;;18.20;99.90;;;;;;5061062;28;20024;-77
2022/10/16 08:33:22;;;;;;;5.85;5.05;;;18.20;99.90;;;;;;5069954;28;20074;-77
2022/10/16 08:35:53;;;;;;;8.50;5.32;;;18.30;99.90;;;;;;5081405;28;20085;-77
2022/10/16 08:38:19;;;;;;;9.82;6.18;;;18.30;99.90;;;;;;5082555;28;20027;-77
2022/10/16 08:40:45;;;;;;;8.60;5.93;;;18.30;99.90;;;;;;5074018;28;20048;-78
2022/10/16 08:43:23;;;;;;;7.40;4.60;;;18.30;99.90;;;;;;5076317;28;20388;-78
2022/10/16 08:46:19;;;;;;;6.35;4.50;;;18.30;99.90;;;;;;5058205;28;20517;-79
2022/10/16 08:48:51;;;;;;;9.45;4.85;;;18.30;99.90;;;;;;5066598;28;20263;-79
2022/10/16 08:51:37;;;;;;;8.23;4.28;;;18.30;99.90;;;;;;5066379;28;20457;-79
2022/10/16 08:54:05;;;;;;;7.55;4.18;;;18.40;99.90;;;;;;5068558;28;20389;-79
2022/10/16 08:56:32;;;;;;;6.20;4.10;;;18.50;99.90;;;;;;5061891;28;20456;-78
2022/10/16 08:58:59;;;;;;;7.45;3.70;;;18.60;99.90;;;;;;5059282;28;20025;-78
2022/10/16 09:01:53;;;;;;;4.20;3.13;;;18.70;99.90;;;;;;5064711;28;20041;-79
2022/10/16 09:04:59;;;;;;;5.03;2.97;;;18.70;99.90;;;;;;5069937;28;20225;-90
2022/10/16 09:07:47;;;;;;;5.60;3.17;;;18.80;99.90;;;;;;5061988;28;20025;-78
2022/10/16 09:10:38;;;;;;;5.75;2.15;;;18.90;99.90;;;;;;5056255;28;20313;-78
2022/10/16 09:13:23;;;;;;;3.17;1.88;;;18.90;99.90;;;;;;5064309;28;20020;-79
2022/10/16 09:16:09;;;;;;;5.88;2.50;;;19.00;99.90;;;;;;5053997;28;20409;-79
2022/10/16 09:18:48;;;;;;;3.92;2.15;;;19.10;99.90;;;;;;5067192;28;20070;-78
2022/10/16 09:21:21;;;;;;;4.53;1.85;;;19.20;99.90;;;;;;5070584;28;20090;-85
2022/10/16 09:23:47;;;;;;;4.90;2.13;;;19.20;99.90;;;;;;5070796;28;20027;-82
2022/10/16 09:26:15;;;;;;;2.67;1.70;;;19.30;99.90;;;;;;5066383;28;20029;-84
2022/10/16 09:28:41;;;;;;;4.03;1.90;;;19.40;99.90;;;;;;5069511;28;20211;-84
2022/10/16 09:31:21;;;;;;;5.55;2.03;;;19.50;99.90;;;;;;5066559;28;20213;-80
2022/10/16 09:33:53;;;;;;;4.10;1.98;;;19.50;99.90;;;;;;5074496;28;20053;-81
2022/10/16 09:36:20;;;;;;;4.75;1.83;;;19.60;99.90;;;;;;5065134;28;20332;-82
2022/10/16 09:38:45;;;;;;;5.70;2.40;;;19.60;99.90;;;;;;5060388;28;20028;-81
2022/10/16 09:41:20;;;;;;;2.90;2.15;;;19.60;99.90;;;;;;5074775;28;20119;-81
2022/10/16 09:43:51;;;;;;;5.07;1.90;;;19.70;99.90;;;;;;5072955;28;20064;-81
2022/10/16 09:46:29;;;;;;;4.95;2.45;;;19.70;99.90;;;;;;5067457;28;20028;-88
2022/10/16 09:48:57;;;;;;;2.90;2.22;;;19.70;99.90;;;;;;5072764;28;20112;-86
2022/10/16 09:51:27;;;;;;;4.43;2.15;;;19.80;99.90;;;;;;5058629;28;20078;-84
2022/10/16 09:53:59;;;;;;;3.15;2.00;;;19.90;99.90;;;;;;5059327;28;20031;-84
2022/10/16 09:56:33;;;;;;;3.85;2.17;;;19.90;99.90;;;;;;5061350;28;20075;-84
2022/10/16 09:58:59;;;;;;;;;;;20.00;99.90;;;;;;5064257;28;20348;-83
2022/10/16 10:01:35;;;;;;;5.63;2.60;;;20.00;99.90;;;;;;5064696;28;20165;-81
2022/10/16 10:04:02;;;;;;;5.30;2.92;;;20.00;99.90;;;;;;5054863;28;20017;-80
2022/10/16 10:06:37;;;;;;;4.50;2.90;;;20.10;99.90;;;;;;5067976;28;20481;-83
2022/10/16 10:09:05;;;;;;;4.90;2.90;;;20.10;99.90;;;;;;5053693;28;20539;-84
2022/10/16 10:12:08;;;;;;;7.38;3.70;;;20.10;99.90;;;;;;5054379;28;20025;-83
2022/10/16 10:14:40;;;;;;;6.05;3.58;;;20.00;99.90;;;;;;5038962;28;20037;-83
2022/10/16 10:17:06;;;;;;;7.05;4.22;;;20.10;99.90;;;;;;5062157;28;20021;-84
2022/10/16 10:20:22;;;;;;;7.60;4.93;;;20.10;99.90;;;;;;5060937;28;20081;-83
2022/10/16 10:22:48;;;;;;;7.53;3.85;;;20.10;99.90;;;;;;5066206;28;20025;-84
2022/10/16 10:25:14;;;;;;;10.63;5.25;;;20.20;99.90;;;;;;5069791;28;20036;-83
2022/10/16 10:27:53;;;;;;;10.93;5.57;;;20.30;99.90;;;;;;5059996;28;20119;-83
2022/10/16 10:30:22;;;;;;;8.38;4.53;;;20.40;99.90;;;;;;5053822;28;20082;-83
2022/10/16 10:33:33;;;;;;;8.90;5.22;;;20.40;99.90;;;;;;5060931;28;20049;-83
2022/10/16 10:36:13;;;;;;;6.93;4.85;;;20.50;99.90;;;;;;5053480;28;20102;-82
2022/10/16 10:38:49;;;;;;;7.95;4.85;;;20.60;99.90;;;;;;5051795;28;20029;-83
2022/10/16 10:41:53;;;;;;;8.50;5.35;;;20.50;99.90;;;;;;5055600;28;20086;-83
2022/10/16 10:44:36;;;;;;;5.25;4.57;;;20.60;99.90;;;;;;5058355;28;20350;-83
2022/10/16 10:47:47;;;;;;;8.57;5.00;;;20.70;99.90;;;;;;5057322;28;20029;-83
2022/10/16 10:50:40;;;;;;;8.75;4.88;;;20.80;99.90;;;;;;5006067;28;20033;-83
2022/10/16 10:53:18;;;;;;;10.48;5.00;;;20.90;99.90;;;;;;5080776;28;20039;-85
2022/10/16 10:55:59;;;;;;;9.95;5.18;;;21.10;99.90;;;;;;5054603;28;20264;-84
2022/10/16 10:58:53;;;;;;;5.80;5.00;;;21.10;99.90;;;;;;5063960;28;20024;-84
2022/10/16 11:01:39;;;;;;;6.03;4.82;;;21.20;99.90;;;;;;5054737;28;20500;-84
2022/10/16 11:04:30;;;;;;;7.65;5.20;;;21.30;99.90;;;;;;5057904;28;20033;-85
2022/10/16 11:07:04;;;;;;;9.35;4.93;;;21.30;99.90;;;;;;5060714;28;20028;-83
2022/10/16 11:09:40;;;;;;;8.57;5.25;;;21.30;99.90;;;;;;5059245;28;20031;-82
2022/10/16 11:12:15;;;;;;;7.22;5.30;;;21.50;99.90;;;;;;5056814;28;20104;-82
2022/10/16 11:14:56;;;;;;;8.90;4.97;;;21.50;99.90;;;;;;5055105;28;20480;-81
2022/10/16 11:17:38;;;;;;;7.18;5.30;;;21.70;99.90;;;;;;5053691;28;20029;-81
2022/10/16 11:20:21;;;;;;;12.75;5.95;;;21.70;99.90;;;;;;5068143;28;20332;-81
2022/10/16 11:23:00;;;;;;;8.45;5.03;;;21.80;99.90;;;;;;5066250;28;20016;-80
2022/10/16 11:25:33;;;;;;;10.00;5.28;;;21.90;99.90;;;;;;5074578;28;20020;-81
2022/10/16 11:28:07;;;;;;;7.03;4.70;;;21.90;99.90;;;;;;5078337;28;20102;-81
2022/10/16 11:30:45;;;;;;;6.85;4.82;;;21.90;99.90;;;;;;5059793;28;20021;-81
2022/10/16 11:33:37;;;;;;;8.27;4.82;;;22.00;99.90;;;;;;5063520;28;20040;-81
2022/10/16 11:36:22;;;;;;;11.35;5.35;;;22.10;99.90;;;;;;5054113;28;20029;-79
2022/10/16 11:39:41;;;;;;;8.82;5.20;;;22.20;99.90;;;;;;5063224;28;20094;-79
2022/10/16 11:42:16;;;;;;;5.45;4.78;;;22.20;99.90;;;;;;5047921;28;20041;-80
2022/10/16 11:45:14;;;;;;;9.70;4.78;;;22.20;99.90;;;;;;5062974;28;20028;-77
2022/10/16 11:47:48;;;;;;;8.80;5.10;;;22.20;99.90;;;;;;5050448;28;20091;-78
2022/10/16 11:50:20;;;;;;;6.28;5.07;;;22.20;99.90;;;;;;5060623;28;20029;-78
2022/10/16 11:52:56;;;;;;;11.65;5.20;;;22.10;99.90;;;;;;5063153;28;20017;-78
2022/10/16 11:55:31;;;;;;;7.90;4.88;;;22.20;99.90;;;;;;5052037;28;20029;-78
2022/10/16 11:58:14;;;;;;;8.45;4.70;;;22.30;99.90;;;;;;5051938;28;20298;-78
2022/10/16 12:01:10;;;;;;;10.00;4.93;;;22.30;99.90;;;;;;5058304;28;20028;-77
2022/10/16 12:03:38;;;;;;;6.13;4.30;;;22.40;99.90;;;;;;5055551;28;20032;-79
2022/10/16 12:06:30;;;;;;;9.63;4.82;;;22.50;99.90;;;;;;5067821;28;20020;-79
2022/10/16 12:09:00;;;;;;;8.05;4.70;;;22.60;99.90;;;;;;5054419;28;20039;-83
2022/10/16 12:11:28;;;;;;;7.15;4.70;;;22.70;99.90;;;;;;5053275;28;20027;-82
2022/10/16 12:14:04;;;;;;;6.00;4.30;;;22.80;99.90;;;;;;5057871;28;20040;-85
2022/10/16 12:16:30;;;;;;;8.60;4.50;;;23.00;99.90;;;;;;5051597;28;20021;-84
2022/10/16 12:19:15;;;;;;;5.90;4.30;;;23.20;99.90;;;;;;5057122;28;20036;-85
2022/10/16 12:21:42;;;;;;;6.60;3.85;;;23.20;99.90;;;;;;5061443;28;20121;-84
2022/10/16 12:24:31;;;;;;;8.05;4.63;;;23.10;99.90;;;;;;5055401;28;20025;-84
2022/10/16 12:26:56;;;;;;;6.82;4.35;;;23.00;99.90;;;;;;5063199;28;20025;-84
2022/10/16 12:29:32;;;;;;;5.60;4.00;;;23.20;99.90;;;;;;5060339;28;20036;-84
2022/10/16 12:31:57;;;;;;;8.80;4.47;;;23.40;99.90;;;;;;5055778;28;20591;-85
2022/10/16 12:34:37;;;;;;;7.57;4.10;;;23.50;99.90;;;;;;5052320;28;20052;-84
2022/10/16 12:37:22;;;;;;;5.63;4.25;;;23.80;99.90;;;;;;5052997;28;20503;-83
2022/10/16 12:39:49;;;;;;;10.27;4.38;;;24.10;99.90;;;;;;5050485;28;20082;-83
2022/10/16 12:42:26;;;;;;;7.30;3.97;;;23.90;99.90;;;;;;5051032;28;20040;-83
2022/10/16 12:44:52;;;;;;;6.78;3.95;;;23.80;99.90;;;;;;5057038;28;20357;-83
2022/10/16 12:47:48;;;;;;;6.80;3.70;;;23.90;99.90;;;;;;5061730;28;20021;-83
2022/10/16 12:50:28;;;;;;;5.97;3.67;;;24.20;99.90;;;;;;5055548;28;20036;-85
2022/10/16 12:52:54;;;;;;;10.23;3.80;;;24.40;99.90;;;;;;5054661;28;20029;-85
2022/10/16 12:55:21;;;;;;;5.75;3.30;;;24.60;99.90;;;;;;5056347;28;20174;-85
2022/10/16 12:58:05;;;;;;;6.30;3.67;;;24.50;99.90;;;;;;5058079;28;20017;-85
2022/10/16 13:00:49;;;;;;;6.90;3.88;;;24.50;99.90;;;;;;5052356;28;20413;-88
2022/10/16 13:03:48;;;;;;;6.25;2.70;;;24.50;99.90;;;;;;5059410;28;20029;-87
2022/10/16 13:06:27;;;;;;;6.20;3.50;;;24.30;99.90;;;;;;5066211;28;20351;-87